sensor_id;sensor_type;location;lat;lon;timestamp;pressure;altitude;pressure_sealevel;temperature;humidity
41062;BME280;26812;42.662;23.352;2023-08-06T00:02:23;93830.34;;;20.97;79.63
41062;BME280;26812;42.662;23.352;2023-08-06T00:04:49;93827.25;;;20.95;80.67
41062;BME280;26812;42.662;23.352;2023-08-06T00:07:14;93827.16;;;21.02;80.96
41062;BME280;26812;42.662;23.352;2023-08-06T00:09:39;93811.81;;;21.08;77.71
41062;BME280;26812;42.662;23.352;2023-08-06T00:12:05;93833.81;;;20.67;79.62
41062;BME280;26812;42.662;23.352;2023-08-06T00:14:30;93853.47;;;20.55;82.14
41062;BME280;26812;42.662;23.352;2023-08-06T00:16:56;93831.88;;;20.23;84.88
41062;BME280;26812;42.662;23.352;2023-08-06T00:19:21;93809.84;;;20.41;85.87
41062;BME280;26812;42.662;23.352;2023-08-06T00:21:46;93802.00;;;20.43;83.44
41062;BME280;26812;42.662;23.352;2023-08-06T00:24:12;93823.47;;;20.86;80.93
41062;BME280;26812;42.662;23.352;2023-08-06T00:26:37;93805.94;;;20.76;81.60
41062;BME280;26812;42.662;23.352;2023-08-06T00:29:02;93800.25;;;20.63;82.23
41062;BME280;26812;42.662;23.352;2023-08-06T00:31:28;93799.25;;;20.81;81.69
41062;BME280;26812;42.662;23.352;2023-08-06T00:33:53;93807.19;;;20.71;81.75
41062;BME280;26812;42.662;23.352;2023-08-06T00:36:18;93799.28;;;20.77;80.94
41062;BME280;26812;42.662;23.352;2023-08-06T00:38:44;93802.97;;;20.63;82.14
41062;BME280;26812;42.662;23.352;2023-08-06T00:41:09;93790.03;;;20.67;82.41
41062;BME280;26812;42.662;23.352;2023-08-06T00:43:35;93799.56;;;21.24;79.65
41062;BME280;26812;42.662;23.352;2023-08-06T00:46:00;93809.31;;;21.25;79.70
41062;BME280;26812;42.662;23.352;2023-08-06T00:48:26;93779.72;;;20.78;81.98
41062;BME280;26812;42.662;23.352;2023-08-06T00:50:51;93803.88;;;20.87;81.90
41062;BME280;26812;42.662;23.352;2023-08-06T00:53:17;93793.31;;;20.89;82.61
41062;BME280;26812;42.662;23.352;2023-08-06T00:55:44;93802.00;;;21.15;80.35
41062;BME280;26812;42.662;23.352;2023-08-06T00:58:10;93805.13;;;20.83;81.53
41062;BME280;26812;42.662;23.352;2023-08-06T01:00:35;93775.00;;;20.45;84.18
41062;BME280;26812;42.662;23.352;2023-08-06T01:03:01;93772.97;;;20.56;83.13
41062;BME280;26812;42.662;23.352;2023-08-06T01:05:32;93757.47;;;20.39;83.92
41062;BME280;26812;42.662;23.352;2023-08-06T01:10:58;93754.78;;;21.03;81.25
41062;BME280;26812;42.662;23.352;2023-08-06T01:13:36;93747.53;;;20.90;80.61
41062;BME280;26812;42.662;23.352;2023-08-06T01:16:03;93755.44;;;20.81;81.37
41062;BME280;26812;42.662;23.352;2023-08-06T01:18:30;93754.72;;;20.39;83.32
41062;BME280;26812;42.662;23.352;2023-08-06T01:20:56;93766.22;;;20.64;83.17
41062;BME280;26812;42.662;23.352;2023-08-06T01:23:21;93730.69;;;20.61;82.86
41062;BME280;26812;42.662;23.352;2023-08-06T01:26:05;93731.06;;;20.93;80.39
41062;BME280;26812;42.662;23.352;2023-08-06T01:29:08;93731.69;;;20.36;83.92
41062;BME280;26812;42.662;23.352;2023-08-06T01:31:37;93742.69;;;20.33;85.55
41062;BME280;26812;42.662;23.352;2023-08-06T01:34:06;93734.44;;;20.40;85.23
41062;BME280;26812;42.662;23.352;2023-08-06T01:36:33;93737.69;;;20.96;82.23
41062;BME280;26812;42.662;23.352;2023-08-06T01:38:59;93739.69;;;20.92;81.69
41062;BME280;26812;42.662;23.352;2023-08-06T01:41:24;93717.31;;;20.66;83.07
41062;BME280;26812;42.662;23.352;2023-08-06T01:43:50;93723.63;;;20.63;84.59
41062;BME280;26812;42.662;23.352;2023-08-06T01:46:15;93727.09;;;20.98;82.30
41062;BME280;26812;42.662;23.352;2023-08-06T01:48:40;93728.00;;;20.88;82.54
41062;BME280;26812;42.662;23.352;2023-08-06T01:51:06;93725.34;;;21.11;81.82
41062;BME280;26812;42.662;23.352;2023-08-06T01:53:32;93723.13;;;21.02;82.31
41062;BME280;26812;42.662;23.352;2023-08-06T01:55:58;93737.00;;;21.19;81.42
41062;BME280;26812;42.662;23.352;2023-08-06T01:58:23;93723.44;;;21.08;81.28
41062;BME280;26812;42.662;23.352;2023-08-06T02:00:49;93739.31;;;21.20;81.23
41062;BME280;26812;42.662;23.352;2023-08-06T02:03:14;93722.34;;;21.02;81.76
41062;BME280;26812;42.662;23.352;2023-08-06T02:05:40;93724.16;;;21.12;81.44
41062;BME280;26812;42.662;23.352;2023-08-06T02:08:05;93719.78;;;21.18;81.35
41062;BME280;26812;42.662;23.352;2023-08-06T02:10:31;93701.09;;;21.09;81.71
41062;BME280;26812;42.662;23.352;2023-08-06T02:12:56;93694.84;;;21.13;81.08
41062;BME280;26812;42.662;23.352;2023-08-06T02:15:21;93720.25;;;21.40;80.09
41062;BME280;26812;42.662;23.352;2023-08-06T02:17:47;93713.34;;;21.32;80.10
41062;BME280;26812;42.662;23.352;2023-08-06T02:20:13;93720.84;;;21.28;81.00
41062;BME280;26812;42.662;23.352;2023-08-06T02:22:39;93738.66;;;21.13;81.40
41062;BME280;26812;42.662;23.352;2023-08-06T02:25:04;93743.28;;;21.16;81.46
41062;BME280;26812;42.662;23.352;2023-08-06T02:27:30;93751.94;;;21.14;81.80
41062;BME280;26812;42.662;23.352;2023-08-06T02:29:55;93743.63;;;20.91;82.67
41062;BME280;26812;42.662;23.352;2023-08-06T02:32:21;93736.81;;;21.02;82.99
41062;BME280;26812;42.662;23.352;2023-08-06T02:34:46;93710.72;;;20.94;83.05
41062;BME280;26812;42.662;23.352;2023-08-06T02:37:12;93730.31;;;21.23;81.51
41062;BME280;26812;42.662;23.352;2023-08-06T02:39:37;93738.09;;;20.94;82.99
41062;BME280;26812;42.662;23.352;2023-08-06T02:42:06;93753.38;;;20.92;82.54
41062;BME280;26812;42.662;23.352;2023-08-06T02:44:32;93768.53;;;20.66;84.17
41062;BME280;26812;42.662;23.352;2023-08-06T02:46:58;93748.16;;;20.33;87.72
41062;BME280;26812;42.662;23.352;2023-08-06T02:49:24;93759.34;;;20.49;87.31
41062;BME280;26812;42.662;23.352;2023-08-06T02:51:49;93752.06;;;20.69;86.13
41062;BME280;26812;42.662;23.352;2023-08-06T02:54:14;93726.47;;;20.87;85.73
41062;BME280;26812;42.662;23.352;2023-08-06T02:56:43;93726.78;;;20.92;83.92
41062;BME280;26812;42.662;23.352;2023-08-06T02:59:09;93721.88;;;20.76;83.84
41062;BME280;26812;42.662;23.352;2023-08-06T03:01:35;93724.88;;;20.89;83.47
41062;BME280;26812;42.662;23.352;2023-08-06T03:04:01;93703.53;;;20.39;85.35
41062;BME280;26812;42.662;23.352;2023-08-06T03:06:26;93693.56;;;20.60;86.31
41062;BME280;26812;42.662;23.352;2023-08-06T03:08:58;93695.25;;;20.81;84.98
41062;BME280;26812;42.662;23.352;2023-08-06T03:11:23;93686.31;;;20.76;83.46
41062;BME280;26812;42.662;23.352;2023-08-06T03:13:49;93672.00;;;20.65;83.53
41062;BME280;26812;42.662;23.352;2023-08-06T03:16:14;93684.72;;;20.45;86.48
41062;BME280;26812;42.662;23.352;2023-08-06T03:18:40;93701.03;;;20.18;89.50
41062;BME280;26812;42.662;23.352;2023-08-06T03:21:05;93673.03;;;20.07;90.72
41062;BME280;26812;42.662;23.352;2023-08-06T03:23:31;93681.38;;;20.30;89.92
41062;BME280;26812;42.662;23.352;2023-08-06T03:26:01;93684.44;;;20.36;90.35
41062;BME280;26812;42.662;23.352;2023-08-06T03:28:26;93713.75;;;20.69;86.79
41062;BME280;26812;42.662;23.352;2023-08-06T03:31:01;93739.00;;;20.50;88.12
41062;BME280;26812;42.662;23.352;2023-08-06T03:33:27;93742.84;;;20.56;88.57
41062;BME280;26812;42.662;23.352;2023-08-06T03:35:52;93741.50;;;20.71;86.27
41062;BME280;26812;42.662;23.352;2023-08-06T03:38:18;93752.16;;;20.62;86.94
41062;BME280;26812;42.662;23.352;2023-08-06T03:40:43;93736.75;;;20.75;86.82
41062;BME280;26812;42.662;23.352;2023-08-06T03:43:08;93698.53;;;20.68;86.64
41062;BME280;26812;42.662;23.352;2023-08-06T03:45:34;93713.00;;;20.99;86.18
41062;BME280;26812;42.662;23.352;2023-08-06T03:47:59;93723.00;;;21.09;84.44
41062;BME280;26812;42.662;23.352;2023-08-06T03:50:24;93721.72;;;20.91;85.98
41062;BME280;26812;42.662;23.352;2023-08-06T03:52:50;93740.75;;;20.67;87.69
41062;BME280;26812;42.662;23.352;2023-08-06T03:55:15;93753.41;;;20.13;87.27
41062;BME280;26812;42.662;23.352;2023-08-06T03:57:40;93744.38;;;19.75;91.29
41062;BME280;26812;42.662;23.352;2023-08-06T04:00:06;93737.09;;;20.06;92.19
41062;BME280;26812;42.662;23.352;2023-08-06T04:02:32;93745.13;;;20.24;91.44
41062;BME280;26812;42.662;23.352;2023-08-06T04:04:57;93757.00;;;20.51;88.51
41062;BME280;26812;42.662;23.352;2023-08-06T04:07:24;93766.53;;;20.32;87.20
41062;BME280;26812;42.662;23.352;2023-08-06T04:09:57;93774.84;;;20.22;89.42
41062;BME280;26812;42.662;23.352;2023-08-06T04:12:23;93766.94;;;20.31;90.63
41062;BME280;26812;42.662;23.352;2023-08-06T04:14:50;93756.31;;;20.36;89.09
41062;BME280;26812;42.662;23.352;2023-08-06T04:17:16;93738.63;;;20.48;89.09
41062;BME280;26812;42.662;23.352;2023-08-06T04:19:41;93727.69;;;20.48;89.37
41062;BME280;26812;42.662;23.352;2023-08-06T04:22:07;93737.22;;;21.01;86.73
41062;BME280;26812;42.662;23.352;2023-08-06T04:24:32;93744.16;;;21.09;86.44
41062;BME280;26812;42.662;23.352;2023-08-06T04:26:57;93742.75;;;20.97;87.17
41062;BME280;26812;42.662;23.352;2023-08-06T04:29:23;93732.53;;;21.01;86.88
41062;BME280;26812;42.662;23.352;2023-08-06T04:31:48;93728.91;;;21.08;85.96
41062;BME280;26812;42.662;23.352;2023-08-06T04:34:13;93739.59;;;20.99;86.60
41062;BME280;26812;42.662;23.352;2023-08-06T04:36:39;93721.16;;;20.72;89.27
41062;BME280;26812;42.662;23.352;2023-08-06T04:39:04;93715.78;;;20.96;89.32
41062;BME280;26812;42.662;23.352;2023-08-06T04:41:29;93717.03;;;21.18;87.31
41062;BME280;26812;42.662;23.352;2023-08-06T04:43:56;93689.91;;;21.00;85.78
41062;BME280;26812;42.662;23.352;2023-08-06T04:46:22;93668.78;;;20.70;88.53
41062;BME280;26812;42.662;23.352;2023-08-06T04:48:47;93693.63;;;20.87;88.71
41062;BME280;26812;42.662;23.352;2023-08-06T04:51:12;93684.53;;;21.20;87.75
41062;BME280;26812;42.662;23.352;2023-08-06T04:53:38;93685.78;;;21.16;87.58
41062;BME280;26812;42.662;23.352;2023-08-06T04:56:03;93667.28;;;20.96;88.27
41062;BME280;26812;42.662;23.352;2023-08-06T04:58:29;93670.91;;;21.44;86.06
41062;BME280;26812;42.662;23.352;2023-08-06T05:00:54;93669.38;;;21.12;87.94
41062;BME280;26812;42.662;23.352;2023-08-06T05:03:20;93669.63;;;21.25;85.53
41062;BME280;26812;42.662;23.352;2023-08-06T05:05:46;93683.22;;;21.01;87.89
41062;BME280;26812;42.662;23.352;2023-08-06T05:08:15;93673.56;;;21.24;87.27
41062;BME280;26812;42.662;23.352;2023-08-06T05:10:44;93671.25;;;21.19;87.97
41062;BME280;26812;42.662;23.352;2023-08-06T05:13:10;93685.41;;;21.41;87.40
41062;BME280;26812;42.662;23.352;2023-08-06T05:15:35;93689.72;;;21.42;87.50
41062;BME280;26812;42.662;23.352;2023-08-06T05:18:01;93692.59;;;21.58;86.24
41062;BME280;26812;42.662;23.352;2023-08-06T05:20:26;93688.53;;;21.66;86.01
41062;BME280;26812;42.662;23.352;2023-08-06T05:22:51;93701.34;;;21.96;82.84
41062;BME280;26812;42.662;23.352;2023-08-06T05:25:17;93694.19;;;22.02;81.79
41062;BME280;26812;42.662;23.352;2023-08-06T05:27:42;93691.88;;;22.00;82.69
41062;BME280;26812;42.662;23.352;2023-08-06T05:30:08;93673.44;;;22.01;81.58
41062;BME280;26812;42.662;23.352;2023-08-06T05:32:34;93692.44;;;22.15;80.66
41062;BME280;26812;42.662;23.352;2023-08-06T05:34:59;93685.19;;;22.25;81.26
41062;BME280;26812;42.662;23.352;2023-08-06T05:37:24;93673.69;;;22.53;79.68
41062;BME280;26812;42.662;23.352;2023-08-06T05:39:50;93671.13;;;22.62;80.15
41062;BME280;26812;42.662;23.352;2023-08-06T05:42:16;93673.59;;;22.97;78.27
41062;BME280;26812;42.662;23.352;2023-08-06T05:44:41;93652.69;;;22.83;77.77
41062;BME280;26812;42.662;23.352;2023-08-06T05:47:06;93662.84;;;22.86;77.63
41062;BME280;26812;42.662;23.352;2023-08-06T05:49:32;93648.41;;;22.82;77.58
41062;BME280;26812;42.662;23.352;2023-08-06T05:51:57;93660.34;;;22.91;78.66
41062;BME280;26812;42.662;23.352;2023-08-06T05:54:23;93667.06;;;23.27;75.76
41062;BME280;26812;42.662;23.352;2023-08-06T05:56:48;93679.59;;;23.44;74.27
41062;BME280;26812;42.662;23.352;2023-08-06T05:59:13;93667.06;;;23.43;74.13
41062;BME280;26812;42.662;23.352;2023-08-06T06:01:38;93673.94;;;23.51;72.18
41062;BME280;26812;42.662;23.352;2023-08-06T06:04:04;93676.97;;;23.57;70.62
41062;BME280;26812;42.662;23.352;2023-08-06T06:06:29;93685.00;;;23.47;69.55
41062;BME280;26812;42.662;23.352;2023-08-06T06:08:55;93684.31;;;23.27;70.76
41062;BME280;26812;42.662;23.352;2023-08-06T06:11:21;93691.28;;;23.48;70.39
41062;BME280;26812;42.662;23.352;2023-08-06T06:13:50;93688.63;;;23.44;69.59
41062;BME280;26812;42.662;23.352;2023-08-06T06:16:16;93702.91;;;23.72;68.82
41062;BME280;26812;42.662;23.352;2023-08-06T06:18:41;93705.75;;;23.84;67.93
41062;BME280;26812;42.662;23.352;2023-08-06T06:21:06;93710.41;;;23.71;67.82
41062;BME280;26812;42.662;23.352;2023-08-06T06:23:32;93716.25;;;23.73;67.40
41062;BME280;26812;42.662;23.352;2023-08-06T06:25:57;93719.34;;;23.92;66.08
41062;BME280;26812;42.662;23.352;2023-08-06T06:28:22;93714.75;;;23.85;65.33
41062;BME280;26812;42.662;23.352;2023-08-06T06:30:48;93714.94;;;24.10;64.99
41062;BME280;26812;42.662;23.352;2023-08-06T06:33:13;93722.75;;;24.12;63.42
41062;BME280;26812;42.662;23.352;2023-08-06T06:35:39;93727.84;;;23.81;64.09
41062;BME280;26812;42.662;23.352;2023-08-06T06:38:04;93721.44;;;23.51;65.49
41062;BME280;26812;42.662;23.352;2023-08-06T06:40:29;93750.28;;;23.96;65.13
41062;BME280;26812;42.662;23.352;2023-08-06T06:42:55;93746.00;;;23.95;64.64
41062;BME280;26812;42.662;23.352;2023-08-06T06:45:20;93751.47;;;24.11;64.11
41062;BME280;26812;42.662;23.352;2023-08-06T06:47:45;93749.41;;;24.31;63.79
41062;BME280;26812;42.662;23.352;2023-08-06T06:50:11;93741.41;;;24.21;64.11
41062;BME280;26812;42.662;23.352;2023-08-06T06:52:37;93739.66;;;24.43;62.09
41062;BME280;26812;42.662;23.352;2023-08-06T06:55:02;93765.00;;;24.67;61.36
41062;BME280;26812;42.662;23.352;2023-08-06T06:57:28;93766.31;;;24.62;62.45
41062;BME280;26812;42.662;23.352;2023-08-06T06:59:53;93777.91;;;24.70;61.75
41062;BME280;26812;42.662;23.352;2023-08-06T07:02:18;93787.22;;;24.60;61.59
41062;BME280;26812;42.662;23.352;2023-08-06T07:04:44;93792.38;;;24.58;61.34
41062;BME280;26812;42.662;23.352;2023-08-06T07:07:09;93794.41;;;24.70;60.14
41062;BME280;26812;42.662;23.352;2023-08-06T07:09:41;93795.34;;;24.80;60.26
41062;BME280;26812;42.662;23.352;2023-08-06T07:12:07;93792.09;;;24.97;58.48
41062;BME280;26812;42.662;23.352;2023-08-06T07:14:32;93785.56;;;25.07;56.92
41062;BME280;26812;42.662;23.352;2023-08-06T07:16:58;93791.75;;;24.83;57.42
41062;BME280;26812;42.662;23.352;2023-08-06T07:19:23;93804.03;;;24.49;57.92
41062;BME280;26812;42.662;23.352;2023-08-06T07:21:48;93813.44;;;24.15;59.02
41062;BME280;26812;42.662;23.352;2023-08-06T07:24:14;93799.59;;;23.87;59.26
41062;BME280;26812;42.662;23.352;2023-08-06T07:26:39;93802.19;;;23.94;58.31
41062;BME280;26812;42.662;23.352;2023-08-06T07:29:05;93800.56;;;24.12;58.94
41062;BME280;26812;42.662;23.352;2023-08-06T07:31:30;93809.09;;;24.34;57.33
41062;BME280;26812;42.662;23.352;2023-08-06T07:33:55;93800.22;;;24.43;56.59
41062;BME280;26812;42.662;23.352;2023-08-06T07:36:21;93813.69;;;24.86;55.96
41062;BME280;26812;42.662;23.352;2023-08-06T07:38:46;93799.28;;;25.24;53.95
41062;BME280;26812;42.662;23.352;2023-08-06T07:41:13;93800.53;;;25.48;53.26
41062;BME280;26812;42.662;23.352;2023-08-06T07:43:39;93805.47;;;25.28;53.70
41062;BME280;26812;42.662;23.352;2023-08-06T07:46:04;93805.94;;;25.52;52.05
41062;BME280;26812;42.662;23.352;2023-08-06T07:48:30;93798.78;;;25.42;52.91
41062;BME280;26812;42.662;23.352;2023-08-06T07:50:56;93795.94;;;25.71;51.91
41062;BME280;26812;42.662;23.352;2023-08-06T07:53:22;93795.53;;;26.10;49.74
41062;BME280;26812;42.662;23.352;2023-08-06T07:55:52;93791.22;;;26.09;49.02
41062;BME280;26812;42.662;23.352;2023-08-06T07:58:19;93796.38;;;26.45;47.88
41062;BME280;26812;42.662;23.352;2023-08-06T08:00:44;93789.59;;;26.59;47.54
41062;BME280;26812;42.662;23.352;2023-08-06T08:03:14;93791.38;;;27.00;46.38
41062;BME280;26812;42.662;23.352;2023-08-06T08:05:40;93788.03;;;26.92;46.11
41062;BME280;26812;42.662;23.352;2023-08-06T08:08:06;93790.06;;;27.14;45.84
41062;BME280;26812;42.662;23.352;2023-08-06T08:10:32;93771.41;;;26.49;46.61
41062;BME280;26812;42.662;23.352;2023-08-06T08:12:58;93782.63;;;26.67;47.09
41062;BME280;26812;42.662;23.352;2023-08-06T08:15:24;93771.47;;;26.11;48.27
41062;BME280;26812;42.662;23.352;2023-08-06T08:17:51;93795.19;;;26.34;48.75
41062;BME280;26812;42.662;23.352;2023-08-06T08:20:17;93792.47;;;26.68;48.65
41062;BME280;26812;42.662;23.352;2023-08-06T08:22:43;93791.53;;;26.37;48.82
41062;BME280;26812;42.662;23.352;2023-08-06T08:25:08;93788.25;;;26.04;48.09
41062;BME280;26812;42.662;23.352;2023-08-06T08:27:33;93807.78;;;26.09;48.15
41062;BME280;26812;42.662;23.352;2023-08-06T08:29:59;93801.03;;;25.97;47.52
41062;BME280;26812;42.662;23.352;2023-08-06T08:32:24;93800.16;;;26.13;47.81
41062;BME280;26812;42.662;23.352;2023-08-06T08:34:49;93791.31;;;26.18;47.18
41062;BME280;26812;42.662;23.352;2023-08-06T08:37:15;93799.09;;;26.58;46.96
41062;BME280;26812;42.662;23.352;2023-08-06T08:39:40;93801.19;;;26.67;45.98
41062;BME280;26812;42.662;23.352;2023-08-06T08:42:06;93791.56;;;26.71;45.83
41062;BME280;26812;42.662;23.352;2023-08-06T08:44:32;93788.38;;;26.95;45.69
41062;BME280;26812;42.662;23.352;2023-08-06T08:46:59;93789.00;;;27.33;45.72
41062;BME280;26812;42.662;23.352;2023-08-06T08:49:26;93790.31;;;27.50;44.64
41062;BME280;26812;42.662;23.352;2023-08-06T08:51:53;93789.16;;;27.61;44.20
41062;BME280;26812;42.662;23.352;2023-08-06T08:54:26;93786.53;;;27.57;45.42
41062;BME280;26812;42.662;23.352;2023-08-06T08:56:52;93780.28;;;27.44;45.78
41062;BME280;26812;42.662;23.352;2023-08-06T08:59:18;93787.38;;;27.23;45.97
41062;BME280;26812;42.662;23.352;2023-08-06T09:01:45;93780.50;;;27.06;46.27
41062;BME280;26812;42.662;23.352;2023-08-06T09:04:17;93779.97;;;27.20;47.08
41062;BME280;26812;42.662;23.352;2023-08-06T09:06:43;93774.38;;;27.11;46.66
41062;BME280;26812;42.662;23.352;2023-08-06T09:09:17;93763.59;;;27.04;45.91
41062;BME280;26812;42.662;23.352;2023-08-06T09:11:48;93753.97;;;26.74;47.21
41062;BME280;26812;42.662;23.352;2023-08-06T09:14:14;93767.72;;;26.86;47.59
41062;BME280;26812;42.662;23.352;2023-08-06T09:16:40;93764.88;;;26.30;48.91
41062;BME280;26812;42.662;23.352;2023-08-06T09:19:13;93767.94;;;26.57;47.84
41062;BME280;26812;42.662;23.352;2023-08-06T09:21:41;93759.91;;;26.50;48.03
41062;BME280;26812;42.662;23.352;2023-08-06T09:24:11;93760.78;;;26.82;47.68
41062;BME280;26812;42.662;23.352;2023-08-06T09:26:38;93747.00;;;27.04;47.06
41062;BME280;26812;42.662;23.352;2023-08-06T09:29:08;93746.44;;;27.09;46.92
41062;BME280;26812;42.662;23.352;2023-08-06T09:31:47;93754.25;;;27.32;46.84
41062;BME280;26812;42.662;23.352;2023-08-06T09:36:43;93740.78;;;27.12;46.84
41062;BME280;26812;42.662;23.352;2023-08-06T09:39:15;93735.41;;;27.40;46.20
41062;BME280;26812;42.662;23.352;2023-08-06T09:41:42;93720.34;;;27.72;45.13
41062;BME280;26812;42.662;23.352;2023-08-06T09:44:19;93695.75;;;27.65;43.57
41062;BME280;26812;42.662;23.352;2023-08-06T09:46:56;93737.59;;;27.76;43.35
41062;BME280;26812;42.662;23.352;2023-08-06T09:49:26;93729.50;;;27.60;40.72
41062;BME280;26812;42.662;23.352;2023-08-06T09:51:52;93738.31;;;27.14;42.93
41062;BME280;26812;42.662;23.352;2023-08-06T09:54:23;93742.50;;;27.19;42.56
41062;BME280;26812;42.662;23.352;2023-08-06T09:56:48;93734.97;;;26.98;42.85
41062;BME280;26812;42.662;23.352;2023-08-06T09:59:15;93750.44;;;26.73;45.53
41062;BME280;26812;42.662;23.352;2023-08-06T10:01:43;93733.88;;;26.95;43.20
41062;BME280;26812;42.662;23.352;2023-08-06T10:04:08;93734.09;;;27.01;44.19
41062;BME280;26812;42.662;23.352;2023-08-06T10:06:35;93749.69;;;27.16;42.74
41062;BME280;26812;42.662;23.352;2023-08-06T10:09:02;93738.00;;;27.12;42.57
41062;BME280;26812;42.662;23.352;2023-08-06T10:11:28;93755.63;;;27.28;44.20
41062;BME280;26812;42.662;23.352;2023-08-06T10:13:58;93749.50;;;27.33;44.10
41062;BME280;26812;42.662;23.352;2023-08-06T10:16:25;93744.78;;;27.42;42.87
41062;BME280;26812;42.662;23.352;2023-08-06T10:18:53;93734.28;;;27.28;42.35
41062;BME280;26812;42.662;23.352;2023-08-06T10:21:19;93750.63;;;27.44;42.25
41062;BME280;26812;42.662;23.352;2023-08-06T10:23:53;93739.53;;;27.35;41.75
41062;BME280;26812;42.662;23.352;2023-08-06T10:26:19;93739.81;;;27.28;41.52
41062;BME280;26812;42.662;23.352;2023-08-06T10:28:44;93741.72;;;27.18;43.07
41062;BME280;26812;42.662;23.352;2023-08-06T10:31:10;93741.81;;;27.59;42.27
41062;BME280;26812;42.662;23.352;2023-08-06T10:36:08;93760.25;;;27.31;40.01
41062;BME280;26812;42.662;23.352;2023-08-06T10:38:47;93757.34;;;27.34;40.66
41062;BME280;26812;42.662;23.352;2023-08-06T10:41:27;93763.97;;;27.37;41.14
41062;BME280;26812;42.662;23.352;2023-08-06T10:44:07;93767.50;;;27.37;41.45
41062;BME280;26812;42.662;23.352;2023-08-06T10:46:33;93769.00;;;27.29;42.00
41062;BME280;26812;42.662;23.352;2023-08-06T10:48:59;93777.66;;;27.18;42.50
41062;BME280;26812;42.662;23.352;2023-08-06T10:51:25;93770.28;;;27.15;42.38
41062;BME280;26812;42.662;23.352;2023-08-06T10:53:51;93761.53;;;27.17;42.57
41062;BME280;26812;42.662;23.352;2023-08-06T10:56:18;93787.16;;;26.96;43.16
41062;BME280;26812;42.662;23.352;2023-08-06T10:58:45;93783.72;;;26.91;43.46
41062;BME280;26812;42.662;23.352;2023-08-06T11:01:11;93760.47;;;26.80;43.72
41062;BME280;26812;42.662;23.352;2023-08-06T11:03:37;93790.03;;;26.92;43.79
41062;BME280;26812;42.662;23.352;2023-08-06T11:06:09;93796.53;;;26.98;44.18
41062;BME280;26812;42.662;23.352;2023-08-06T11:08:37;93798.44;;;27.01;43.67
41062;BME280;26812;42.662;23.352;2023-08-06T11:11:11;93799.31;;;26.98;43.66
41062;BME280;26812;42.662;23.352;2023-08-06T11:13:38;93788.16;;;27.02;43.52
41062;BME280;26812;42.662;23.352;2023-08-06T11:16:05;93788.09;;;27.36;43.83
41062;BME280;26812;42.662;23.352;2023-08-06T11:18:32;93788.59;;;27.66;43.28
41062;BME280;26812;42.662;23.352;2023-08-06T11:21:01;93795.09;;;27.81;42.21
41062;BME280;26812;42.662;23.352;2023-08-06T11:23:27;93787.31;;;27.89;42.11
41062;BME280;26812;42.662;23.352;2023-08-06T11:25:54;93821.78;;;27.97;41.73
41062;BME280;26812;42.662;23.352;2023-08-06T11:28:20;93841.19;;;27.75;42.08
41062;BME280;26812;42.662;23.352;2023-08-06T11:30:47;93828.72;;;27.48;41.10
41062;BME280;26812;42.662;23.352;2023-08-06T11:33:12;93826.34;;;27.60;41.61
41062;BME280;26812;42.662;23.352;2023-08-06T11:35:38;93812.88;;;27.49;42.11
41062;BME280;26812;42.662;23.352;2023-08-06T11:38:08;93809.25;;;27.08;46.56
41062;BME280;26812;42.662;23.352;2023-08-06T11:40:35;93811.69;;;26.59;50.44
41062;BME280;26812;42.662;23.352;2023-08-06T11:43:01;93809.75;;;26.21;52.50
41062;BME280;26812;42.662;23.352;2023-08-06T11:45:26;93809.09;;;26.05;53.05
41062;BME280;26812;42.662;23.352;2023-08-06T11:47:52;93814.78;;;25.59;55.34
41062;BME280;26812;42.662;23.352;2023-08-06T11:50:25;93807.47;;;25.40;56.70
41062;BME280;26812;42.662;23.352;2023-08-06T11:53:00;93779.63;;;24.64;60.10
41062;BME280;26812;42.662;23.352;2023-08-06T11:55:27;93804.38;;;24.35;61.33
41062;BME280;26812;42.662;23.352;2023-08-06T11:57:54;93800.56;;;24.12;62.00
41062;BME280;26812;42.662;23.352;2023-08-06T12:00:20;93797.97;;;24.05;61.08
41062;BME280;26812;42.662;23.352;2023-08-06T12:02:48;93798.41;;;24.04;61.20
41062;BME280;26812;42.662;23.352;2023-08-06T12:05:15;93801.44;;;24.26;61.06
41062;BME280;26812;42.662;23.352;2023-08-06T12:07:45;93795.41;;;24.92;59.52
41062;BME280;26812;42.662;23.352;2023-08-06T12:10:12;93804.84;;;25.49;56.79
41062;BME280;26812;42.662;23.352;2023-08-06T12:12:38;93795.31;;;25.92;53.74
41062;BME280;26812;42.662;23.352;2023-08-06T12:15:05;93796.22;;;26.61;51.38
41062;BME280;26812;42.662;23.352;2023-08-06T12:17:31;93777.75;;;26.93;48.44
41062;BME280;26812;42.662;23.352;2023-08-06T12:19:57;93766.56;;;27.09;47.77
41062;BME280;26812;42.662;23.352;2023-08-06T12:22:22;93771.16;;;27.34;46.53
41062;BME280;26812;42.662;23.352;2023-08-06T12:24:47;93779.88;;;27.54;46.47
41062;BME280;26812;42.662;23.352;2023-08-06T12:27:15;93774.84;;;27.31;48.27
41062;BME280;26812;42.662;23.352;2023-08-06T12:29:45;93786.16;;;26.89;50.17
41062;BME280;26812;42.662;23.352;2023-08-06T12:32:11;93783.09;;;26.53;49.02
41062;BME280;26812;42.662;23.352;2023-08-06T12:34:41;93790.59;;;26.87;48.96
41062;BME280;26812;42.662;23.352;2023-08-06T12:37:07;93777.88;;;26.68;47.69
41062;BME280;26812;42.662;23.352;2023-08-06T12:39:33;93791.91;;;26.95;46.66
41062;BME280;26812;42.662;23.352;2023-08-06T12:42:01;93791.44;;;27.09;46.27
41062;BME280;26812;42.662;23.352;2023-08-06T12:44:26;93789.63;;;26.81;47.10
41062;BME280;26812;42.662;23.352;2023-08-06T12:46:53;93776.34;;;26.88;46.89
41062;BME280;26812;42.662;23.352;2023-08-06T12:49:19;93776.59;;;26.81;46.05
41062;BME280;26812;42.662;23.352;2023-08-06T12:51:51;93778.47;;;26.84;45.52
41062;BME280;26812;42.662;23.352;2023-08-06T12:54:17;93781.88;;;26.54;46.89
41062;BME280;26812;42.662;23.352;2023-08-06T12:56:50;93779.03;;;26.79;46.56